Terminal Aerodrome Forecast
Issued by NWS

Home | Current Version | Previous Version | Text Only | Print | Product List | Glossary On
Versions: 1 2 3 4 5 6 7 8 9 10 11 12 13 14 15 16 17 18 19 20 21 22 23 24
000
FTUS41 KRLX 041120
TAFCKB
TAF
KCKB 041120Z 0412/0512 24004KT 4SM BR OVC007
     FM041400 VRB03KT 6SM BR BKN010
     FM041500 28004KT P6SM BKN015
     FM041900 29005KT P6SM BKN035
     FM050300 00000KT 6SM BR SCT035
     FM050900 00000KT 4SM BR SCT100=

USA.gov is the U.S. government's official web portal to all federal, state and local government web resources and services.